Jarbidge, Nevada
Current Conditions -  °F | °C
As of 10:53 AM on Saturday 25 Oct 2014 (Local Time) from KTWF Reporting Station
Clear Clear  
Wind Chill: 77°   Ceiling: Unl
Heat Index: 77°   Visibility: 10mi
Dew Point: 32°   Wind: 16mph
Humidity: 19%   Direction: 160°SSE
Pressure: 29.91"   Gusts: 25mph
Location:  41.87°N, 115.43°W
Report Text: KTWF 251753Z 16014G22KT 10SM CLR 25/00 A2991 RMK AO2 RAB42E51 SLP079 P0000 60000 T02500000 10250 20150 58008
Loading
Personal Weather Stations






























Interactive Weather Map
Tropical Storm Tracking
New forecast layout! Learn more

10-Day Weather Forecast

Advertisements
Track Severe Weather on mobile